Time;durP1;ratioP1;P1;durP2;ratioP2;P2;SDS_P1;SDS_P2;PMS_P1;PMS_P2;Temp;Humidity;BMP_temperature;BMP_pressure;BME280_temperature;BME280_humidity;BME280_pressure;Samples;Min_cycle;Max_cycle;Signal;HPM_P1;HPM_P2
2023/12/15 00:00:28;;;;;;;5.43;2.60;;;19.90;73.50;;;;;;2062524;28;20269;-68
2023/12/15 00:01:29;;;;;;;3.53;2.47;;;19.90;73.40;;;;;;2061874;28;20038;-68
2023/12/15 00:02:29;;;;;;;3.38;2.50;;;19.90;73.30;;;;;;2062931;28;20027;-68
2023/12/15 00:03:30;;;;;;;3.22;2.55;;;19.90;73.20;;;;;;2060914;28;20467;-68
2023/12/15 00:04:30;;;;;;;5.57;2.40;;;19.90;73.20;;;;;;2062073;28;20023;-68
2023/12/15 00:05:31;;;;;;;4.07;2.40;;;19.90;73.20;;;;;;2062679;28;20551;-68
2023/12/15 00:06:32;;;;;;;3.75;2.17;;;19.90;73.20;;;;;;2059936;28;20026;-68
2023/12/15 00:07:32;;;;;;;3.67;1.92;;;19.90;73.20;;;;;;2061569;28;20038;-68
2023/12/15 00:08:33;;;;;;;4.53;2.53;;;19.90;73.20;;;;;;2063248;28;20474;-68
2023/12/15 00:09:33;;;;;;;3.03;2.08;;;19.90;73.20;;;;;;2059861;28;20558;-68
2023/12/15 00:10:35;;;;;;;4.88;2.03;;;19.90;73.20;;;;;;2061991;28;20038;-68
2023/12/15 00:11:35;;;;;;;5.90;1.95;;;19.90;73.20;;;;;;2062505;28;20026;-68
2023/12/15 00:12:36;;;;;;;3.58;1.98;;;19.90;73.20;;;;;;2060393;28;20046;-68
2023/12/15 00:13:36;;;;;;;4.18;2.70;;;19.90;73.20;;;;;;2062643;28;20023;-68
2023/12/15 00:14:37;;;;;;;6.32;2.40;;;19.90;73.20;;;;;;2062257;28;20018;-68
2023/12/15 00:15:37;;;;;;;4.55;2.38;;;19.80;73.10;;;;;;2063900;28;20479;-68
2023/12/15 00:16:38;;;;;;;6.93;2.20;;;19.90;73.10;;;;;;2063204;28;20026;-68
2023/12/15 00:17:39;;;;;;;4.65;2.63;;;19.90;73.10;;;;;;2062280;28;20105;-68
2023/12/15 00:18:39;;;;;;;5.38;2.33;;;19.90;73.10;;;;;;2062832;28;20033;-68
2023/12/15 00:19:40;;;;;;;2.33;1.83;;;19.90;73.10;;;;;;2062784;28;20041;-68
2023/12/15 00:20:40;;;;;;;4.85;2.10;;;19.90;73.10;;;;;;2061415;28;20057;-68
2023/12/15 00:21:41;;;;;;;4.88;2.25;;;19.80;73.10;;;;;;2062385;28;20517;-68
2023/12/15 00:22:41;;;;;;;3.33;1.92;;;19.80;73.20;;;;;;2057467;28;20030;-68
2023/12/15 00:23:42;;;;;;;4.82;2.22;;;19.80;73.10;;;;;;2062439;28;20485;-68
2023/12/15 00:24:43;;;;;;;5.10;1.92;;;19.80;73.10;;;;;;2061054;28;20131;-68
2023/12/15 00:25:43;;;;;;;4.72;2.13;;;19.80;73.10;;;;;;2060686;28;20510;-68
2023/12/15 00:26:44;;;;;;;3.97;2.13;;;19.80;73.10;;;;;;2059103;28;20026;-68
2023/12/15 00:27:44;;;;;;;4.40;2.15;;;19.80;73.10;;;;;;2061913;28;20030;-68
2023/12/15 00:28:45;;;;;;;3.85;2.28;;;19.80;73.00;;;;;;2059858;28;20204;-68
2023/12/15 00:29:45;;;;;;;2.80;2.20;;;19.80;73.00;;;;;;2061907;28;20030;-68
2023/12/15 00:30:46;;;;;;;5.30;1.88;;;19.80;73.00;;;;;;2061735;28;20065;-68
2023/12/15 00:31:47;;;;;;;3.60;1.80;;;19.80;73.10;;;;;;2061049;28;20458;-68
2023/12/15 00:32:47;;;;;;;4.97;1.80;;;19.80;73.00;;;;;;2056964;28;20031;-68
2023/12/15 00:33:48;;;;;;;4.28;1.88;;;19.80;73.00;;;;;;2053991;28;20031;-68
2023/12/15 00:34:48;;;;;;;3.83;2.05;;;19.80;73.10;;;;;;2061252;28;20192;-68
2023/12/15 00:35:49;;;;;;;3.65;1.95;;;19.80;73.00;;;;;;2061327;28;20483;-68
2023/12/15 00:36:50;;;;;;;5.55;2.10;;;19.80;72.90;;;;;;2059130;28;20027;-68
2023/12/15 00:37:50;;;;;;;3.17;1.88;;;19.80;72.90;;;;;;2062949;28;20030;-68
2023/12/15 00:38:51;;;;;;;4.18;2.00;;;19.80;72.90;;;;;;2061616;28;20034;-68
2023/12/15 00:39:52;;;;;;;4.82;1.95;;;19.80;72.90;;;;;;2060218;28;20026;-68
2023/12/15 00:40:52;;;;;;;4.00;1.83;;;19.80;72.90;;;;;;2061084;28;20081;-68
2023/12/15 00:41:53;;;;;;;3.05;1.75;;;19.70;72.90;;;;;;2061144;28;20018;-68
2023/12/15 00:42:53;;;;;;;3.65;2.03;;;19.80;72.90;;;;;;2063353;28;20409;-68
2023/12/15 00:43:54;;;;;;;5.90;2.25;;;19.80;72.90;;;;;;2060018;28;20023;-68
2023/12/15 00:44:56;;;;;;;2.80;1.70;;;19.80;72.90;;;;;;2061958;28;20030;-68
2023/12/15 00:45:56;;;;;;;5.53;2.58;;;19.80;73.10;;;;;;2057958;28;20026;-68
2023/12/15 00:46:57;;;;;;;3.10;1.90;;;19.80;72.80;;;;;;2063403;28;20566;-68
2023/12/15 00:47:57;;;;;;;5.78;2.63;;;19.80;72.80;;;;;;2060419;28;20445;-68
2023/12/15 00:48:58;;;;;;;3.63;1.90;;;19.80;72.80;;;;;;2062801;28;20022;-68
2023/12/15 00:49:59;;;;;;;4.00;1.73;;;19.80;72.90;;;;;;2059513;28;20195;-68
2023/12/15 00:50:59;;;;;;;2.88;2.00;;;19.80;72.90;;;;;;2063215;28;20022;-68
2023/12/15 00:52:00;;;;;;;4.68;2.05;;;19.80;72.90;;;;;;2061042;28;20058;-68
2023/12/15 00:53:00;;;;;;;3.88;2.28;;;19.80;72.90;;;;;;2063202;28;20034;-68
2023/12/15 00:54:01;;;;;;;6.10;2.30;;;19.70;72.80;;;;;;2061823;28;20026;-68
2023/12/15 00:55:02;;;;;;;2.35;1.85;;;19.80;72.80;;;;;;2063230;28;20109;-68
2023/12/15 00:56:03;;;;;;;3.03;2.00;;;19.80;72.80;;;;;;2057158;28;20023;-68
2023/12/15 00:57:03;;;;;;;4.95;1.75;;;19.70;72.80;;;;;;2062631;28;20018;-68
2023/12/15 00:58:04;;;;;;;4.30;2.13;;;19.80;72.80;;;;;;2058459;28;20118;-68
2023/12/15 00:59:05;;;;;;;4.60;2.28;;;19.80;72.80;;;;;;2060322;28;20513;-68
2023/12/15 01:00:06;;;;;;;3.33;2.00;;;19.70;72.70;;;;;;2062946;28;20035;-68
2023/12/15 01:01:07;;;;;;;6.38;2.28;;;19.70;72.70;;;;;;2058894;28;20026;-68
2023/12/15 01:02:08;;;;;;;1.88;1.55;;;19.70;72.60;;;;;;2057552;28;20029;-68
2023/12/15 01:03:08;;;;;;;3.90;2.50;;;19.70;72.70;;;;;;2059404;28;20286;-68
2023/12/15 01:04:09;;;;;;;4.45;1.90;;;19.70;72.70;;;;;;2059957;28;20050;-68
2023/12/15 01:05:10;;;;;;;5.25;2.58;;;19.70;72.60;;;;;;2063126;28;20145;-68
2023/12/15 01:06:10;;;;;;;4.50;1.65;;;19.70;72.60;;;;;;2059687;28;20045;-68
2023/12/15 01:07:11;;;;;;;4.03;2.10;;;19.80;72.70;;;;;;2062592;28;20065;-68
2023/12/15 01:08:12;;;;;;;4.90;2.00;;;19.70;72.60;;;;;;2058327;28;20046;-68
2023/12/15 01:09:12;;;;;;;4.35;1.77;;;19.70;72.60;;;;;;2062781;28;20077;-68
2023/12/15 01:10:13;;;;;;;6.47;1.95;;;19.70;72.50;;;;;;2062187;28;20030;-68
2023/12/15 01:11:13;;;;;;;2.88;2.05;;;19.70;72.50;;;;;;2058592;28;20015;-68
2023/12/15 01:12:14;;;;;;;5.03;2.35;;;19.70;72.50;;;;;;2061814;28;20479;-68
2023/12/15 01:13:15;;;;;;;3.10;1.80;;;19.70;72.60;;;;;;2062048;28;20038;-68
2023/12/15 01:14:15;;;;;;;2.95;2.00;;;19.70;72.50;;;;;;2062658;28;20037;-68
2023/12/15 01:15:16;;;;;;;4.68;2.30;;;19.70;72.50;;;;;;2062644;28;20030;-68
2023/12/15 01:16:17;;;;;;;2.45;1.80;;;19.70;72.60;;;;;;2057285;28;20026;-68
2023/12/15 01:17:18;;;;;;;5.50;1.83;;;19.70;72.50;;;;;;2059188;28;20018;-68
2023/12/15 01:18:18;;;;;;;3.83;2.20;;;19.70;72.70;;;;;;2061615;28;20194;-68
2023/12/15 01:19:19;;;;;;;4.00;1.90;;;19.70;72.70;;;;;;2062746;28;20110;-68
2023/12/15 01:20:19;;;;;;;4.88;2.22;;;19.70;72.60;;;;;;2061074;28;20023;-68
2023/12/15 01:21:20;;;;;;;3.10;1.95;;;19.70;72.60;;;;;;2062903;28;20061;-68
2023/12/15 01:22:20;;;;;;;3.95;2.00;;;19.70;72.60;;;;;;2060459;28;20026;-68
2023/12/15 01:23:21;;;;;;;2.72;1.80;;;19.70;72.60;;;;;;2062192;28;20060;-68
2023/12/15 01:24:22;;;;;;;3.53;2.03;;;19.70;72.60;;;;;;2061614;28;20027;-68
2023/12/15 01:25:22;;;;;;;6.55;2.10;;;19.70;72.60;;;;;;2061258;28;20474;-68
2023/12/15 01:26:23;;;;;;;5.18;2.08;;;19.70;72.60;;;;;;2061614;28;20014;-68
2023/12/15 01:27:23;;;;;;;5.18;2.00;;;19.70;72.60;;;;;;2061209;28;20182;-68
2023/12/15 01:28:24;;;;;;;3.00;2.10;;;19.60;72.50;;;;;;2061726;28;20029;-68
2023/12/15 01:29:24;;;;;;;4.03;2.08;;;19.60;72.50;;;;;;2062716;28;20026;-68
2023/12/15 01:30:25;;;;;;;2.58;2.05;;;19.60;72.50;;;;;;2062178;28;20490;-68
2023/12/15 01:31:26;;;;;;;4.50;1.80;;;19.70;72.60;;;;;;2061335;28;20350;-68
2023/12/15 01:32:26;;;;;;;2.72;1.52;;;19.70;72.60;;;;;;2059372;28;20068;-68
2023/12/15 01:33:28;;;;;;;5.18;2.17;;;19.70;72.50;;;;;;2060919;28;20026;-67
2023/12/15 01:34:28;;;;;;;4.70;2.50;;;19.70;72.50;;;;;;2059780;28;20022;-68
2023/12/15 01:35:29;;;;;;;5.55;2.15;;;19.60;72.50;;;;;;2059104;28;20037;-68
2023/12/15 01:36:29;;;;;;;3.17;2.25;;;19.60;72.50;;;;;;2057295;28;20061;-68
2023/12/15 01:37:30;;;;;;;2.75;2.08;;;19.70;72.50;;;;;;2061977;28;20041;-68
2023/12/15 01:38:30;;;;;;;2.90;1.88;;;19.60;72.50;;;;;;2060028;28;20046;-68
2023/12/15 01:39:31;;;;;;;3.70;1.83;;;19.60;72.50;;;;;;2061257;28;20030;-68
2023/12/15 01:40:31;;;;;;;3.63;1.52;;;19.70;72.50;;;;;;2061401;28;20106;-68
2023/12/15 01:41:32;;;;;;;3.85;1.50;;;19.60;72.50;;;;;;2059372;28;20015;-68
2023/12/15 01:42:32;;;;;;;3.65;1.60;;;19.70;72.50;;;;;;2060179;28;20097;-68
2023/12/15 01:43:33;;;;;;;1.80;1.60;;;19.60;72.50;;;;;;2060293;28;20082;-68
2023/12/15 01:44:34;;;;;;;4.82;2.20;;;19.60;72.50;;;;;;2057569;28;20027;-68
2023/12/15 01:45:35;;;;;;;2.90;2.10;;;19.70;72.50;;;;;;2059836;28;20015;-68
2023/12/15 01:46:35;;;;;;;2.38;1.65;;;19.60;72.40;;;;;;2060480;28;20423;-68
2023/12/15 01:47:36;;;;;;;3.97;2.00;;;19.60;72.40;;;;;;2060126;28;20026;-68
2023/12/15 01:48:36;;;;;;;2.85;2.13;;;19.70;72.50;;;;;;2063205;28;20027;-68
2023/12/15 01:49:38;;;;;;;2.80;1.98;;;19.60;72.40;;;;;;2062732;28;20141;-67
2023/12/15 01:50:38;;;;;;;3.78;1.92;;;19.60;72.50;;;;;;2061766;28;20028;-68
2023/12/15 01:51:39;;;;;;;3.17;2.10;;;19.60;72.50;;;;;;2061136;28;20400;-68
2023/12/15 01:52:40;;;;;;;4.15;1.80;;;19.60;72.50;;;;;;2062352;28;20134;-68
2023/12/15 01:53:40;;;;;;;6.07;2.22;;;19.60;72.50;;;;;;2060721;28;20034;-68
2023/12/15 01:54:41;;;;;;;4.15;2.03;;;19.60;72.50;;;;;;2058976;28;20454;-68
2023/12/15 01:55:41;;;;;;;2.90;2.08;;;19.60;72.50;;;;;;2059961;28;20113;-68
2023/12/15 01:56:42;;;;;;;2.72;1.67;;;19.60;72.40;;;;;;2063404;28;20479;-68
2023/12/15 01:57:44;;;;;;;4.85;2.20;;;19.60;72.40;;;;;;2058812;28;20085;-68
2023/12/15 01:58:44;;;;;;;2.85;2.25;;;19.60;72.50;;;;;;2063187;28;20026;-68
2023/12/15 01:59:49;;;;;;;4.10;1.77;;;19.60;72.50;;;;;;2062863;28;20102;-68
2023/12/15 02:00:49;;;;;;;2.83;2.00;;;19.60;72.40;;;;;;2059419;28;20046;-68
2023/12/15 02:01:50;;;;;;;3.78;2.10;;;19.60;72.40;;;;;;2060406;28;20030;-68
2023/12/15 02:02:50;;;;;;;3.97;1.90;;;19.60;72.40;;;;;;2058860;28;20030;-67
2023/12/15 02:03:51;;;;;;;2.63;1.85;;;19.60;72.40;;;;;;2060671;28;20014;-68
2023/12/15 02:04:51;;;;;;;3.65;2.50;;;19.60;72.40;;;;;;2062977;28;20548;-68
2023/12/15 02:05:52;;;;;;;4.20;2.20;;;19.60;72.40;;;;;;2062086;28;20167;-68
2023/12/15 02:06:53;;;;;;;5.22;2.10;;;19.60;72.50;;;;;;2062407;28;20418;-68
2023/12/15 02:07:53;;;;;;;5.00;3.00;;;19.60;72.50;;;;;;2061193;28;20018;-68
2023/12/15 02:08:54;;;;;;;3.42;2.05;;;19.60;72.40;;;;;;2062201;28;20050;-68
2023/12/15 02:09:55;;;;;;;4.43;1.73;;;19.60;72.40;;;;;;2060098;28;20062;-68
2023/12/15 02:10:55;;;;;;;3.78;2.05;;;19.60;72.40;;;;;;2061877;28;20038;-68
2023/12/15 02:11:56;;;;;;;2.15;1.67;;;19.60;73.00;;;;;;2060476;28;20027;-68
2023/12/15 02:12:56;;;;;;;2.67;1.77;;;19.60;72.40;;;;;;2060960;28;20469;-68
2023/12/15 02:13:57;;;;;;;2.35;2.10;;;19.50;72.30;;;;;;2061227;28;20030;-68
2023/12/15 02:14:58;;;;;;;3.67;2.03;;;19.60;72.40;;;;;;2059036;28;20019;-68
2023/12/15 02:15:58;;;;;;;4.22;2.35;;;19.60;72.30;;;;;;2061022;28;20096;-68
2023/12/15 02:16:59;;;;;;;4.13;1.88;;;19.60;72.30;;;;;;2062533;28;20486;-68
2023/12/15 02:18:00;;;;;;;3.45;2.08;;;19.60;72.40;;;;;;2060711;28;20045;-68
2023/12/15 02:19:00;;;;;;;4.25;2.30;;;19.60;72.40;;;;;;2062059;28;20034;-68
2023/12/15 02:20:01;;;;;;;5.05;2.17;;;19.50;72.30;;;;;;2058331;28;20487;-68
2023/12/15 02:21:01;;;;;;;2.95;1.70;;;19.50;72.30;;;;;;2061791;28;20433;-68
2023/12/15 02:22:02;;;;;;;3.88;2.15;;;19.60;72.40;;;;;;2061758;28;20027;-68
2023/12/15 02:23:03;;;;;;;3.15;1.80;;;19.50;72.40;;;;;;2060286;28;20478;-68
2023/12/15 02:24:03;;;;;;;3.97;2.10;;;19.60;72.50;;;;;;2056477;28;20035;-68
2023/12/15 02:25:04;;;;;;;2.47;1.90;;;19.50;72.30;;;;;;2060475;28;20022;-68
2023/12/15 02:26:05;;;;;;;4.95;2.42;;;19.50;72.30;;;;;;2062888;28;20018;-68
2023/12/15 02:27:06;;;;;;;2.92;1.80;;;19.50;72.30;;;;;;2056800;28;20025;-68
2023/12/15 02:28:06;;;;;;;4.80;2.38;;;19.50;72.30;;;;;;2062989;28;20030;-68
2023/12/15 02:29:07;;;;;;;4.35;2.13;;;19.50;72.20;;;;;;2062299;28;20520;-68
2023/12/15 02:30:08;;;;;;;2.50;1.85;;;19.50;72.20;;;;;;2061358;28;20096;-68
2023/12/15 02:31:09;;;;;;;2.63;1.95;;;19.50;72.20;;;;;;2061862;28;20034;-68
2023/12/15 02:32:09;;;;;;;4.00;2.20;;;19.50;72.30;;;;;;2061174;28;20030;-67
2023/12/15 02:33:11;;;;;;;3.33;2.08;;;19.50;72.30;;;;;;2057248;28;20031;-68
2023/12/15 02:34:11;;;;;;;4.57;2.03;;;19.50;72.30;;;;;;2062962;28;20490;-68
2023/12/15 02:35:14;;;;;;;2.70;1.70;;;19.50;72.30;;;;;;2061334;28;20037;-68
2023/12/15 02:36:21;;;;;;;2.67;2.00;;;19.50;72.30;;;;;;2057789;28;20049;-68
2023/12/15 02:37:22;;;;;;;2.90;1.58;;;19.50;72.30;;;;;;2058062;28;20099;-67
2023/12/15 02:38:22;;;;;;;4.72;2.35;;;19.50;72.30;;;;;;2059322;28;20014;-68
2023/12/15 02:39:23;;;;;;;3.10;1.98;;;19.50;72.30;;;;;;2061090;28;20037;-68
2023/12/15 02:40:24;;;;;;;3.03;2.13;;;19.50;72.30;;;;;;2058187;28;20046;-67
2023/12/15 02:41:24;;;;;;;3.13;2.20;;;19.50;72.20;;;;;;2061571;28;20114;-67
2023/12/15 02:42:25;;;;;;;2.53;1.88;;;19.50;72.20;;;;;;2059938;28;20033;-68
2023/12/15 02:43:25;;;;;;;3.25;2.00;;;19.50;72.20;;;;;;2056025;28;20023;-68
2023/12/15 02:44:26;;;;;;;3.53;1.95;;;19.50;72.80;;;;;;2057062;28;20015;-67
2023/12/15 02:45:26;;;;;;;4.43;2.30;;;19.50;72.30;;;;;;2059914;28;20034;-68
2023/12/15 02:46:27;;;;;;;3.53;2.08;;;19.50;72.20;;;;;;2058568;28;20411;-68
2023/12/15 02:47:28;;;;;;;5.03;2.20;;;19.50;72.20;;;;;;2061212;28;20033;-67
2023/12/15 02:48:29;;;;;;;3.53;2.50;;;19.50;72.20;;;;;;2059092;28;20300;-68
2023/12/15 02:49:29;;;;;;;4.65;1.98;;;19.50;72.10;;;;;;2060752;28;20102;-68
2023/12/15 02:50:30;;;;;;;2.92;2.10;;;19.50;72.10;;;;;;2061413;28;20084;-68
2023/12/15 02:51:31;;;;;;;4.05;2.03;;;19.50;72.10;;;;;;2062811;28;20109;-68
2023/12/15 02:52:33;;;;;;;4.35;2.38;;;19.50;72.10;;;;;;2060709;28;20473;-68
2023/12/15 02:53:33;;;;;;;2.47;2.05;;;19.50;72.10;;;;;;2058829;28;20050;-68
2023/12/15 02:54:34;;;;;;;5.00;2.45;;;19.50;72.10;;;;;;2057723;28;20015;-68
2023/12/15 02:55:35;;;;;;;4.20;2.65;;;19.50;72.10;;;;;;2059529;28;20022;-67
2023/12/15 02:56:35;;;;;;;3.75;1.85;;;19.40;72.10;;;;;;2060780;28;20422;-68
2023/12/15 02:57:36;;;;;;;4.35;2.35;;;19.40;72.10;;;;;;2061998;28;20015;-68
2023/12/15 02:58:37;;;;;;;5.68;2.10;;;19.50;72.10;;;;;;2059761;28;20081;-67
2023/12/15 02:59:37;;;;;;;3.75;2.00;;;19.40;72.10;;;;;;2057939;28;20491;-67
2023/12/15 03:00:38;;;;;;;5.57;2.40;;;19.40;72.10;;;;;;2060294;28;20093;-68
2023/12/15 03:01:39;;;;;;;3.35;2.28;;;19.40;72.10;;;;;;2062169;28;20042;-68
2023/12/15 03:02:40;;;;;;;4.57;2.00;;;19.40;72.10;;;;;;2060173;28;20121;-68
2023/12/15 03:03:40;;;;;;;2.40;2.10;;;19.40;72.70;;;;;;2060127;28;20690;-68
2023/12/15 03:04:41;;;;;;;4.68;2.17;;;19.40;72.10;;;;;;2059455;28;20031;-67
2023/12/15 03:05:41;;;;;;;6.55;2.10;;;19.40;72.10;;;;;;2056167;28;20415;-68
2023/12/15 03:06:42;;;;;;;3.97;2.50;;;19.40;72.10;;;;;;2060760;28;20391;-67
2023/12/15 03:07:43;;;;;;;4.63;2.55;;;19.40;72.10;;;;;;2061345;28;20022;-68
2023/12/15 03:08:43;;;;;;;6.15;2.58;;;19.40;72.10;;;;;;2062324;28;20560;-67
2023/12/15 03:09:44;;;;;;;4.53;2.60;;;19.40;72.10;;;;;;2060359;28;20553;-67
2023/12/15 03:10:44;;;;;;;4.90;2.40;;;19.40;72.10;;;;;;2056257;28;20031;-68
2023/12/15 03:11:45;;;;;;;4.80;2.45;;;19.40;72.10;;;;;;2061334;28;20023;-68
2023/12/15 03:12:45;;;;;;;5.72;2.67;;;19.40;72.10;;;;;;2057866;28;20023;-68
2023/12/15 03:13:46;;;;;;;5.90;2.53;;;19.40;72.10;;;;;;2060648;28;20026;-67
2023/12/15 03:14:46;;;;;;;5.90;2.40;;;19.40;72.60;;;;;;2058175;28;20023;-67
2023/12/15 03:15:47;;;;;;;3.67;2.47;;;19.40;72.00;;;;;;2056846;28;20078;-67
2023/12/15 03:16:47;;;;;;;3.80;2.35;;;19.40;72.00;;;;;;2047774;28;20588;-68
2023/12/15 03:17:48;;;;;;;2.60;2.00;;;19.40;72.00;;;;;;2060557;28;20102;-68
2023/12/15 03:18:49;;;;;;;5.07;2.30;;;19.40;72.10;;;;;;2061954;28;20073;-68
2023/12/15 03:19:50;;;;;;;4.00;2.05;;;19.40;72.10;;;;;;2062857;28;20033;-68
2023/12/15 03:20:51;;;;;;;4.97;2.15;;;19.40;72.10;;;;;;2063414;28;20049;-68
2023/12/15 03:21:51;;;;;;;4.32;2.28;;;19.40;72.10;;;;;;2062872;28;20080;-68
2023/12/15 03:22:53;;;;;;;4.95;2.25;;;19.40;72.10;;;;;;2063952;28;20085;-68
2023/12/15 03:23:53;;;;;;;3.40;2.17;;;19.40;72.10;;;;;;2062296;28;20037;-68
2023/12/15 03:24:54;;;;;;;3.15;2.17;;;19.40;72.10;;;;;;2063182;28;20201;-68
2023/12/15 03:25:54;;;;;;;3.97;2.28;;;19.40;72.10;;;;;;2061993;28;20085;-68
2023/12/15 03:26:55;;;;;;;3.92;2.30;;;19.40;72.10;;;;;;2063622;28;20320;-68
2023/12/15 03:27:55;;;;;;;6.30;2.30;;;19.40;72.10;;;;;;2059950;28;20128;-67
2023/12/15 03:28:56;;;;;;;4.22;2.58;;;19.40;72.10;;;;;;2062550;28;20335;-68
2023/12/15 03:29:57;;;;;;;5.93;2.78;;;19.40;72.20;;;;;;2062768;28;20038;-68
2023/12/15 03:30:57;;;;;;;4.20;2.25;;;19.40;72.10;;;;;;2057247;28;20379;-67
2023/12/15 03:31:58;;;;;;;5.03;2.58;;;19.40;72.10;;;;;;2063549;28;20026;-68
2023/12/15 03:32:59;;;;;;;3.22;2.15;;;19.40;72.10;;;;;;2064067;28;20118;-67
2023/12/15 03:33:59;;;;;;;5.13;2.45;;;19.40;72.10;;;;;;2059501;28;20340;-68
2023/12/15 03:35:00;;;;;;;5.07;2.50;;;19.40;72.10;;;;;;2061801;28;20710;-68
2023/12/15 03:36:00;;;;;;;3.95;2.22;;;19.40;72.10;;;;;;2062467;28;20738;-68
2023/12/15 03:37:01;;;;;;;4.03;2.08;;;19.40;72.10;;;;;;2062295;28;20042;-68
2023/12/15 03:38:04;;;;;;;5.30;3.00;;;19.40;72.10;;;;;;2063068;28;20027;-67
2023/12/15 03:39:05;;;;;;;3.95;2.30;;;19.40;72.10;;;;;;2064499;28;20070;-68
2023/12/15 03:40:07;;;;;;;5.97;2.72;;;19.40;72.10;;;;;;2063064;28;20053;-67
2023/12/15 03:41:07;;;;;;;3.72;2.33;;;19.40;72.10;;;;;;2063189;28;20502;-68
2023/12/15 03:42:08;;;;;;;3.30;2.03;;;19.40;72.10;;;;;;2057001;28;20054;-67
2023/12/15 03:43:08;;;;;;;5.88;2.30;;;19.30;72.10;;;;;;2062573;28;20023;-68
2023/12/15 03:44:09;;;;;;;4.72;2.78;;;19.40;72.20;;;;;;2061871;28;20034;-68
2023/12/15 03:45:09;;;;;;;2.70;2.22;;;19.30;72.10;;;;;;2062065;28;20027;-67
2023/12/15 03:46:11;;;;;;;4.15;2.42;;;19.30;72.10;;;;;;2063275;28;20088;-67
2023/12/15 03:47:11;;;;;;;4.40;2.30;;;19.30;72.10;;;;;;2063829;28;20022;-68
2023/12/15 03:48:12;;;;;;;5.95;2.55;;;19.30;72.10;;;;;;2059121;28;20015;-68
2023/12/15 03:49:13;;;;;;;7.32;2.22;;;19.40;72.20;;;;;;2062538;28;20025;-68
2023/12/15 03:50:13;;;;;;;5.65;2.72;;;19.30;72.10;;;;;;2060033;28;20066;-67
2023/12/15 03:51:14;;;;;;;5.00;2.55;;;19.30;72.10;;;;;;2058746;28;20026;-68
2023/12/15 03:52:14;;;;;;;3.63;2.35;;;19.30;72.10;;;;;;2063152;28;20057;-68
2023/12/15 03:53:15;;;;;;;4.68;2.92;;;19.30;72.10;;;;;;2057134;28;20026;-68
2023/12/15 03:54:15;;;;;;;4.45;2.40;;;19.30;72.10;;;;;;2056950;28;20031;-68
2023/12/15 03:55:17;;;;;;;6.18;2.75;;;19.30;72.10;;;;;;2060094;28;20026;-68
2023/12/15 03:56:24;;;;;;;5.57;2.80;;;19.30;72.00;;;;;;2062130;28;20037;-68
2023/12/15 03:57:25;;;;;;;3.80;2.53;;;19.30;72.00;;;;;;2059851;28;20440;-68
2023/12/15 03:58:25;;;;;;;7.10;2.40;;;19.30;72.00;;;;;;2059475;28;20247;-67
2023/12/15 03:59:26;;;;;;;3.58;2.45;;;19.30;72.10;;;;;;2060993;28;20453;-68
2023/12/15 04:00:28;;;;;;;4.20;2.25;;;19.30;72.10;;;;;;2062806;28;20030;-67
2023/12/15 04:01:29;;;;;;;4.10;2.75;;;19.30;72.10;;;;;;2061971;28;20045;-67
2023/12/15 04:02:30;;;;;;;4.45;2.45;;;19.30;72.10;;;;;;2059794;28;20019;-68
2023/12/15 04:03:31;;;;;;;4.88;2.55;;;19.30;72.10;;;;;;2058407;28;20035;-67
2023/12/15 04:04:35;;;;;;;5.32;2.55;;;19.20;72.00;;;;;;2064344;28;20042;-67
2023/12/15 04:05:35;;;;;;;3.75;2.55;;;19.30;72.00;;;;;;2061573;28;20035;-68
2023/12/15 04:06:36;;;;;;;4.85;2.60;;;19.30;72.00;;;;;;2060847;28;20033;-68
2023/12/15 04:07:36;;;;;;;5.57;2.55;;;19.30;72.00;;;;;;2062098;28;20034;-68
2023/12/15 04:08:40;;;;;;;4.65;3.08;;;19.30;72.00;;;;;;2062771;28;20026;-67
2023/12/15 04:09:42;;;;;;;4.72;2.65;;;19.30;72.00;;;;;;2060906;28;20041;-67
2023/12/15 04:10:42;;;;;;;5.50;3.05;;;19.30;72.00;;;;;;2062821;28;20446;-68
2023/12/15 04:11:43;;;;;;;5.30;2.78;;;19.30;72.10;;;;;;2062581;28;20050;-67
2023/12/15 04:12:44;;;;;;;4.93;2.83;;;19.30;72.00;;;;;;2064228;28;20026;-68
2023/12/15 04:13:46;;;;;;;4.07;2.08;;;19.30;72.00;;;;;;2061621;28;20031;-68
2023/12/15 04:14:46;;;;;;;6.60;2.80;;;19.30;72.00;;;;;;2054977;28;20025;-67
2023/12/15 04:15:47;;;;;;;3.35;2.50;;;19.30;72.00;;;;;;2052201;28;20169;-68
2023/12/15 04:16:47;;;;;;;4.20;2.90;;;19.30;72.00;;;;;;2062906;28;20026;-68
2023/12/15 04:17:48;;;;;;;3.30;2.40;;;19.30;72.00;;;;;;2057651;28;20049;-67
2023/12/15 04:18:49;;;;;;;5.15;2.47;;;19.30;72.00;;;;;;2061529;28;20026;-68
2023/12/15 04:19:49;;;;;;;6.68;2.50;;;19.30;72.00;;;;;;2058377;28;20109;-68
2023/12/15 04:20:50;;;;;;;4.60;2.25;;;19.20;72.00;;;;;;2063264;28;20026;-68
2023/12/15 04:21:50;;;;;;;3.95;2.50;;;19.30;72.00;;;;;;2059354;28;20549;-68
2023/12/15 04:22:51;;;;;;;5.40;2.80;;;19.30;72.00;;;;;;2063624;28;20438;-68
2023/12/15 04:23:51;;;;;;;5.93;2.58;;;19.30;72.40;;;;;;2060952;28;20031;-68
2023/12/15 04:24:52;;;;;;;5.82;2.65;;;19.30;72.00;;;;;;2062930;28;20023;-68
2023/12/15 04:25:53;;;;;;;5.05;2.80;;;19.30;72.00;;;;;;2063350;28;20411;-68
2023/12/15 04:26:53;;;;;;;8.50;2.95;;;19.30;72.00;;;;;;2058641;28;20035;-68
2023/12/15 04:27:54;;;;;;;5.25;2.75;;;19.20;72.00;;;;;;2062092;28;20046;-68
2023/12/15 04:28:54;;;;;;;3.88;2.35;;;19.30;72.00;;;;;;2059162;28;20027;-68
2023/12/15 04:29:55;;;;;;;4.20;2.75;;;19.20;72.00;;;;;;2059976;28;20026;-68
2023/12/15 04:30:55;;;;;;;4.95;2.78;;;19.20;71.90;;;;;;2061210;28;20034;-68
2023/12/15 04:31:56;;;;;;;4.78;2.70;;;19.20;71.80;;;;;;2062129;28;20034;-67
2023/12/15 04:32:57;;;;;;;3.83;2.90;;;19.30;71.90;;;;;;2063035;28;20053;-68
2023/12/15 04:33:57;;;;;;;4.18;2.67;;;19.20;71.80;;;;;;2056938;28;20054;-68
2023/12/15 04:34:58;;;;;;;3.72;2.35;;;19.20;71.90;;;;;;2059499;28;20456;-68
2023/12/15 04:35:58;;;;;;;5.20;2.58;;;19.20;71.90;;;;;;2063362;28;20022;-67
2023/12/15 04:36:59;;;;;;;5.72;2.88;;;19.20;72.00;;;;;;2059556;28;20031;-67
2023/12/15 04:38:00;;;;;;;4.97;2.53;;;19.20;71.90;;;;;;2063117;28;20073;-68
2023/12/15 04:39:02;;;;;;;5.97;2.80;;;19.20;71.90;;;;;;2063650;28;20041;-67
2023/12/15 04:40:03;;;;;;;7.97;2.80;;;19.20;71.90;;;;;;2061780;28;20064;-67
2023/12/15 04:41:04;;;;;;;5.03;3.10;;;19.20;71.90;;;;;;2045131;28;20034;-68
2023/12/15 04:42:05;;;;;;;5.47;3.00;;;19.20;71.90;;;;;;2055014;28;20019;-67
2023/12/15 04:43:05;;;;;;;5.20;2.92;;;19.20;71.90;;;;;;2056892;28;20030;-67
2023/12/15 04:44:06;;;;;;;4.25;2.80;;;19.20;71.90;;;;;;2061597;28;20118;-68
2023/12/15 04:45:08;;;;;;;4.00;2.45;;;19.20;71.90;;;;;;2062062;28;20097;-67
2023/12/15 04:46:09;;;;;;;3.92;2.42;;;19.20;71.90;;;;;;2059431;28;20100;-67
2023/12/15 04:47:09;;;;;;;4.25;2.75;;;19.20;72.00;;;;;;2061691;28;20057;-68
2023/12/15 04:48:10;;;;;;;4.43;2.60;;;19.20;71.90;;;;;;2063072;28;20094;-67
2023/12/15 04:49:11;;;;;;;4.28;2.53;;;19.20;71.90;;;;;;2063201;28;20412;-67
2023/12/15 04:50:11;;;;;;;4.28;2.85;;;19.20;71.90;;;;;;2062957;28;20050;-68
2023/12/15 04:51:13;;;;;;;4.13;2.40;;;19.20;71.90;;;;;;2061358;28;20106;-68
2023/12/15 04:52:13;;;;;;;5.05;2.53;;;19.20;71.90;;;;;;2060253;28;20041;-68
2023/12/15 04:53:14;;;;;;;4.75;2.63;;;19.20;71.90;;;;;;2061757;28;20041;-67
2023/12/15 04:54:14;;;;;;;4.10;2.60;;;19.20;71.90;;;;;;2062569;28;20026;-67
2023/12/15 04:55:15;;;;;;;4.60;2.80;;;19.20;71.90;;;;;;2062450;28;20026;-67
2023/12/15 04:56:16;;;;;;;5.88;2.88;;;19.20;71.80;;;;;;2059410;28;20051;-68
2023/12/15 04:57:17;;;;;;;4.82;3.22;;;19.20;71.80;;;;;;2063076;28;20027;-67
2023/12/15 04:58:17;;;;;;;4.75;2.80;;;19.20;71.80;;;;;;2060089;28;20038;-67
2023/12/15 04:59:18;;;;;;;3.90;2.80;;;19.20;71.90;;;;;;2061444;28;20120;-67
2023/12/15 05:00:18;;;;;;;3.15;2.47;;;19.20;71.80;;;;;;2061743;28;20102;-67
2023/12/15 05:01:19;;;;;;;6.65;2.80;;;19.20;71.80;;;;;;2060817;28;20077;-67
2023/12/15 05:02:20;;;;;;;5.47;2.90;;;19.20;71.80;;;;;;2058542;28;20039;-67
2023/12/15 05:03:20;;;;;;;3.97;2.50;;;19.20;71.80;;;;;;2062917;28;20023;-67
2023/12/15 05:04:21;;;;;;;3.58;2.60;;;19.20;71.80;;;;;;2060981;28;20038;-68
2023/12/15 05:05:21;;;;;;;4.45;2.45;;;19.20;71.90;;;;;;2063002;28;20414;-68
2023/12/15 05:06:22;;;;;;;4.55;2.80;;;19.20;71.90;;;;;;2062860;28;20030;-67
2023/12/15 05:07:23;;;;;;;4.35;2.58;;;19.20;71.80;;;;;;2062416;28;20105;-68
2023/12/15 05:08:23;;;;;;;3.97;2.78;;;19.20;71.80;;;;;;2062634;28;20435;-68
2023/12/15 05:09:24;;;;;;;4.97;2.80;;;19.20;71.80;;;;;;2062916;28;20030;-66
2023/12/15 05:10:25;;;;;;;3.67;2.42;;;19.20;71.80;;;;;;2062585;28;20023;-67
2023/12/15 05:11:26;;;;;;;6.30;2.85;;;19.10;71.80;;;;;;2056712;28;20054;-66
2023/12/15 05:12:26;;;;;;;5.10;2.50;;;19.20;71.80;;;;;;2063183;28;20024;-66
2023/12/15 05:13:27;;;;;;;4.13;2.90;;;19.20;71.80;;;;;;2061441;28;20490;-66
2023/12/15 05:14:27;;;;;;;4.72;2.65;;;19.20;71.80;;;;;;2061140;28;20015;-66
2023/12/15 05:15:28;;;;;;;5.53;2.78;;;19.20;71.80;;;;;;2060898;28;20029;-67
2023/12/15 05:16:32;;;;;;;4.00;2.40;;;19.20;71.80;;;;;;2060700;28;20034;-66